Time;durP1;ratioP1;P1;durP2;ratioP2;P2;SDS_P1;SDS_P2;PMS_P1;PMS_P2;Temp;Humidity;BMP_temperature;BMP_pressure;BME280_temperature;BME280_humidity;BME280_pressure;Samples;Min_cycle;Max_cycle;Signal;HPM_P1;HPM_P2
2022/12/13 00:01:39;;;;;;;31.38;17.15;;;-0.30;99.90;;;;;;4993110;28;20014;-86
2022/12/13 00:04:07;;;;;;;36.00;17.20;;;-0.30;99.90;;;;;;5005514;28;20036;-87
2022/12/13 00:06:33;;;;;;;36.15;18.20;;;-0.30;99.90;;;;;;5003571;28;20041;-87
2022/12/13 00:09:00;;;;;;;31.80;17.67;;;-0.30;99.90;;;;;;5015460;28;20033;-85
2022/12/13 00:11:26;;;;;;;31.38;16.52;;;-0.30;99.90;;;;;;4998698;28;20042;-86
2022/12/13 00:13:53;;;;;;;31.45;17.08;;;-0.40;99.90;;;;;;4998179;28;20034;-86
2022/12/13 00:16:21;;;;;;;32.28;18.55;;;-0.40;99.90;;;;;;4998360;28;20026;-86
2022/12/13 00:18:54;;;;;;;32.88;18.33;;;-0.40;99.90;;;;;;5014948;28;20524;-86
2022/12/13 00:21:22;;;;;;;32.92;16.58;;;-0.40;99.90;;;;;;5011366;28;20040;-86
2022/12/13 00:23:48;;;;;;;32.03;16.75;;;-0.40;99.90;;;;;;5015696;28;20045;-86
2022/12/13 00:26:17;;;;;;;38.15;18.83;;;-0.50;99.90;;;;;;5011679;28;20117;-87
2022/12/13 00:28:43;;;;;;;31.52;18.20;;;-0.50;99.90;;;;;;5011048;28;20030;-86
2022/12/13 00:31:09;;;;;;;36.20;17.23;;;-0.50;99.90;;;;;;4998240;28;20056;-85
2022/12/13 00:33:37;;;;;;;31.55;16.70;;;-0.50;99.90;;;;;;4981001;28;20101;-86
2022/12/13 00:36:04;;;;;;;35.80;18.02;;;-0.50;99.90;;;;;;4997852;28;20064;-87
2022/12/13 00:38:30;;;;;;;34.55;17.42;;;-0.50;99.90;;;;;;4997185;28;20029;-86
2022/12/13 00:40:56;;;;;;;34.53;18.42;;;-0.50;99.90;;;;;;4997766;28;20076;-86
2022/12/13 00:43:21;;;;;;;32.90;17.23;;;-0.60;99.90;;;;;;4966063;28;20418;-86
2022/12/13 00:45:47;;;;;;;30.48;16.65;;;-0.60;99.90;;;;;;4982430;28;20037;-86
2022/12/13 00:48:13;;;;;;;35.13;17.17;;;-0.50;99.90;;;;;;5013999;28;20039;-86
2022/12/13 00:50:39;;;;;;;31.48;16.60;;;-0.50;99.90;;;;;;5008947;28;20030;-87
2022/12/13 00:53:05;;;;;;;31.42;16.63;;;-0.60;99.90;;;;;;4995636;28;20084;-86
2022/12/13 00:55:30;;;;;;;34.25;17.83;;;-0.60;99.90;;;;;;5011381;28;20096;-86
2022/12/13 00:57:56;;;;;;;34.67;16.95;;;-0.60;99.90;;;;;;4978599;28;20117;-86
2022/12/13 01:00:24;;;;;;;33.88;17.85;;;-0.60;99.90;;;;;;5005866;28;20029;-85
2022/12/13 01:02:51;;;;;;;30.35;16.58;;;-0.60;99.90;;;;;;4997079;28;20022;-85
2022/12/13 01:05:17;;;;;;;33.45;16.55;;;-0.60;99.90;;;;;;4997523;28;20486;-84
2022/12/13 01:07:43;;;;;;;30.35;16.77;;;-0.60;99.90;;;;;;5011374;28;20109;-85
2022/12/13 01:10:11;;;;;;;31.90;17.58;;;-0.60;99.90;;;;;;4978183;28;20100;-85
2022/12/13 01:12:37;;;;;;;30.52;16.98;;;-0.70;99.90;;;;;;4998529;28;20092;-85
2022/12/13 01:15:04;;;;;;;35.65;17.92;;;-0.70;99.90;;;;;;5001999;28;20189;-86
2022/12/13 01:17:30;;;;;;;36.20;16.40;;;-0.70;99.90;;;;;;4997813;28;20030;-85
2022/12/13 01:19:56;;;;;;;30.90;16.58;;;-0.70;99.90;;;;;;4998309;28;20387;-86
2022/12/13 01:22:21;;;;;;;30.85;16.15;;;-0.70;99.90;;;;;;5014619;28;20463;-86
2022/12/13 01:24:47;;;;;;;34.13;16.83;;;-0.70;99.90;;;;;;4996785;28;20044;-85
2022/12/13 01:27:13;;;;;;;28.30;15.80;;;-0.70;99.90;;;;;;4965466;28;20057;-85
2022/12/13 01:29:38;;;;;;;33.95;15.82;;;-0.70;99.90;;;;;;5011253;28;20095;-85
2022/12/13 01:32:04;;;;;;;30.55;15.77;;;-0.70;99.90;;;;;;4965338;28;21040;-85
2022/12/13 01:34:34;;;;;;;34.97;16.50;;;-0.80;99.90;;;;;;4988847;28;20049;-85
2022/12/13 01:37:00;;;;;;;34.05;16.25;;;-0.80;99.90;;;;;;4966113;28;20034;-86
2022/12/13 01:39:26;;;;;;;32.08;16.48;;;-0.80;99.90;;;;;;5010717;28;20097;-85
2022/12/13 01:41:58;;;;;;;30.77;16.30;;;-0.80;99.90;;;;;;4996780;28;20026;-87
2022/12/13 01:44:52;;;;;;;32.28;16.98;;;-0.80;99.90;;;;;;4996632;28;20026;-85
2022/12/13 01:47:25;;;;;;;29.30;16.67;;;-0.80;99.90;;;;;;5014056;28;20125;-85
2022/12/13 01:49:52;;;;;;;33.65;16.88;;;-0.90;99.90;;;;;;4997011;28;20037;-85
2022/12/13 01:52:18;;;;;;;31.92;16.02;;;-0.90;99.90;;;;;;5003512;28;20022;-86
2022/12/13 01:54:49;;;;;;;32.97;15.82;;;-0.90;99.90;;;;;;4982178;28;20042;-88
2022/12/13 01:57:18;;;;;;;33.65;16.60;;;-0.90;99.90;;;;;;4997099;28;20061;-86
2022/12/13 01:59:45;;;;;;;32.97;16.67;;;-0.90;99.90;;;;;;4996786;28;20172;-87
2022/12/13 02:02:13;;;;;;;30.38;15.70;;;-0.90;99.90;;;;;;4965368;28;20117;-86
2022/12/13 02:04:58;;;;;;;27.13;14.88;;;-0.90;99.90;;;;;;5014175;28;20033;-86
2022/12/13 02:07:31;;;;;;;34.10;15.77;;;-0.90;99.90;;;;;;4996182;28;20068;-86
2022/12/13 02:09:59;;;;;;;27.73;14.85;;;-0.90;99.90;;;;;;4992402;28;20126;-86
2022/12/13 02:12:28;;;;;;;30.73;15.18;;;-1.00;99.90;;;;;;4996484;28;20112;-86
2022/12/13 02:14:54;;;;;;;39.00;16.52;;;-1.00;99.90;;;;;;4995889;28;20038;-86
2022/12/13 02:17:46;;;;;;;28.85;15.75;;;-1.00;99.90;;;;;;4996818;28;20450;-86
2022/12/13 02:20:49;;;;;;;33.38;16.50;;;-1.00;99.90;;;;;;4993591;28;20038;-87
2022/12/13 02:23:39;;;;;;;30.20;15.60;;;-1.00;99.90;;;;;;5011743;28;20084;-87
2022/12/13 02:26:33;;;;;;;31.25;16.10;;;-1.00;99.90;;;;;;5029998;28;20038;-88
2022/12/13 02:29:18;;;;;;;31.88;15.68;;;-1.00;99.90;;;;;;5033556;28;20023;-87
2022/12/13 02:32:00;;;;;;;31.23;15.70;;;-1.10;99.90;;;;;;4998610;28;20102;-87
2022/12/13 02:35:14;;;;;;;32.00;16.73;;;-1.10;99.90;;;;;;5015106;28;20049;-86
2022/12/13 02:37:57;;;;;;;33.35;15.30;;;-1.20;99.90;;;;;;4983922;28;20049;-87
2022/12/13 02:40:31;;;;;;;35.22;17.35;;;-1.10;99.90;;;;;;5014927;28;20038;-87
2022/12/13 02:43:26;;;;;;;34.25;15.77;;;-1.10;99.90;;;;;;4999668;28;20030;-86
2022/12/13 02:45:59;;;;;;;33.55;17.15;;;-1.10;99.90;;;;;;4995892;28;20038;-87
2022/12/13 02:48:28;;;;;;;32.08;16.58;;;-1.10;99.90;;;;;;5016751;28;20038;-87
2022/12/13 02:50:56;;;;;;;29.98;15.73;;;-1.20;99.90;;;;;;5000057;28;20050;-87
2022/12/13 02:53:23;;;;;;;35.03;14.80;;;-1.10;99.90;;;;;;5000563;28;20537;-86
2022/12/13 02:55:49;;;;;;;34.33;17.42;;;-1.20;99.90;;;;;;5000469;28;20030;-86
2022/12/13 02:58:28;;;;;;;32.95;16.60;;;-1.20;99.90;;;;;;4999871;28;20022;-87
2022/12/13 03:01:26;;;;;;;31.50;16.75;;;-1.20;99.90;;;;;;5000716;28;20494;-86
2022/12/13 03:03:58;;;;;;;32.80;17.30;;;-1.20;99.90;;;;;;5010021;28;20030;-89
2022/12/13 03:06:29;;;;;;;29.83;15.77;;;-1.20;99.90;;;;;;5013034;28;20077;-87
2022/12/13 03:09:06;;;;;;;29.42;14.52;;;-1.20;99.90;;;;;;5016699;28;20109;-87
2022/12/13 03:14:45;;;;;;;30.42;15.57;;;-1.20;99.90;;;;;;5014218;28;20032;-87
2022/12/13 03:17:15;;;;;;;32.88;16.85;;;-1.30;99.90;;;;;;4999953;28;20018;-87
2022/12/13 03:19:41;;;;;;;31.73;16.70;;;-1.30;99.90;;;;;;5017362;28;20469;-87
2022/12/13 03:22:06;;;;;;;35.35;15.70;;;-1.30;99.90;;;;;;5000349;28;20024;-87
2022/12/13 03:24:32;;;;;;;34.03;15.68;;;-1.30;99.90;;;;;;5011118;28;20105;-87
2022/12/13 03:26:58;;;;;;;28.00;15.45;;;-1.30;99.90;;;;;;4981855;28;20023;-87
2022/12/13 03:29:24;;;;;;;31.38;16.85;;;-1.30;99.90;;;;;;5013723;28;20033;-86
2022/12/13 03:31:50;;;;;;;28.80;14.90;;;-1.20;99.90;;;;;;4983453;28;20120;-87
2022/12/13 03:34:16;;;;;;;29.85;15.80;;;-1.30;99.90;;;;;;4983177;28;20080;-87
2022/12/13 03:36:42;;;;;;;29.95;16.33;;;-1.30;99.90;;;;;;4985373;28;20496;-86
2022/12/13 03:39:07;;;;;;;31.33;15.23;;;-1.30;99.90;;;;;;4983776;28;20045;-87
2022/12/13 03:41:34;;;;;;;32.97;15.43;;;-1.30;99.90;;;;;;4999009;28;20137;-87
2022/12/13 03:44:03;;;;;;;31.75;15.95;;;-1.40;99.90;;;;;;4982471;28;20141;-86
2022/12/13 03:46:29;;;;;;;31.65;17.02;;;-1.40;99.90;;;;;;4999600;28;20038;-88
2022/12/13 03:48:55;;;;;;;33.78;15.70;;;-1.40;99.90;;;;;;4983295;28;20034;-87
2022/12/13 03:51:20;;;;;;;29.08;15.15;;;-1.40;99.90;;;;;;5012158;28;20034;-87
2022/12/13 03:53:46;;;;;;;32.13;16.23;;;-1.40;99.90;;;;;;4999346;28;20109;-88
2022/12/13 03:56:11;;;;;;;33.25;15.45;;;-1.40;99.90;;;;;;5014852;28;20077;-87
2022/12/13 03:58:37;;;;;;;28.33;15.18;;;-1.40;99.90;;;;;;5000325;28;20072;-87
2022/12/13 04:01:08;;;;;;;35.53;16.90;;;-1.40;99.90;;;;;;5011815;28;20037;-87
2022/12/13 04:03:35;;;;;;;28.75;15.27;;;-1.40;99.90;;;;;;5006828;28;20038;-87
2022/12/13 04:06:02;;;;;;;33.33;16.25;;;-1.40;99.90;;;;;;5002794;28;20030;-87
2022/12/13 04:08:27;;;;;;;33.17;15.68;;;-1.50;99.90;;;;;;5002936;28;20033;-87
2022/12/13 04:10:53;;;;;;;32.55;15.45;;;-1.50;99.90;;;;;;4968586;28;20010;-87
2022/12/13 04:13:31;;;;;;;28.13;14.13;;;-1.50;99.90;;;;;;4998987;28;20085;-87
2022/12/13 04:15:56;;;;;;;29.48;14.95;;;-1.50;99.90;;;;;;5001040;28;20030;-87
2022/12/13 04:18:22;;;;;;;28.92;16.20;;;-1.50;99.90;;;;;;4982613;28;20121;-87
2022/12/13 04:20:48;;;;;;;29.38;13.77;;;-1.50;99.90;;;;;;4998961;28;20026;-87
2022/12/13 04:23:14;;;;;;;31.60;16.48;;;-1.50;99.90;;;;;;4998577;28;20109;-88
2022/12/13 04:25:40;;;;;;;27.83;14.15;;;-1.60;99.90;;;;;;5000999;28;20033;-87
2022/12/13 04:28:06;;;;;;;33.47;16.63;;;-1.60;99.90;;;;;;4986890;28;20049;-87
2022/12/13 04:30:33;;;;;;;29.70;15.07;;;-1.60;99.90;;;;;;5003155;28;20029;-87
2022/12/13 04:32:59;;;;;;;30.77;14.57;;;-1.60;99.90;;;;;;4983609;28;20027;-87
2022/12/13 04:35:25;;;;;;;31.15;14.80;;;-1.60;99.90;;;;;;4999550;28;20036;-87
2022/12/13 04:37:51;;;;;;;30.48;15.85;;;-1.60;99.90;;;;;;5016306;28;20030;-87
2022/12/13 04:40:17;;;;;;;32.50;16.20;;;-1.60;99.90;;;;;;4983467;28;20479;-88
2022/12/13 04:42:43;;;;;;;33.28;15.35;;;-1.60;99.90;;;;;;4999328;28;20017;-87
2022/12/13 04:45:16;;;;;;;29.65;14.80;;;-1.60;99.90;;;;;;4965997;28;20041;-87
2022/12/13 04:47:44;;;;;;;30.55;14.70;;;-1.60;99.90;;;;;;4986563;28;20030;-86
2022/12/13 04:50:10;;;;;;;33.53;16.95;;;-1.70;99.90;;;;;;5004605;28;20025;-89
2022/12/13 04:52:36;;;;;;;30.20;14.95;;;-1.70;99.90;;;;;;4987837;28;20014;-88
2022/12/13 04:55:02;;;;;;;33.42;16.67;;;-1.70;99.90;;;;;;5002992;28;20040;-87
2022/12/13 04:57:28;;;;;;;27.40;15.20;;;-1.70;99.90;;;;;;4985407;28;20549;-87
2022/12/13 04:59:54;;;;;;;29.05;15.45;;;-1.70;99.90;;;;;;5001258;28;20060;-87
2022/12/13 05:02:20;;;;;;;31.92;15.35;;;-1.70;99.90;;;;;;4984439;28;20050;-86
2022/12/13 05:04:48;;;;;;;29.65;15.60;;;-1.70;99.90;;;;;;4968289;28;20040;-87
2022/12/13 05:07:14;;;;;;;32.05;15.35;;;-1.80;99.90;;;;;;4983562;28;20052;-87
2022/12/13 05:09:39;;;;;;;30.92;15.20;;;-1.70;99.90;;;;;;4998529;28;20017;-87
2022/12/13 05:12:05;;;;;;;31.08;16.35;;;-1.80;99.90;;;;;;4981843;28;20120;-87
2022/12/13 05:14:31;;;;;;;36.33;15.38;;;-1.80;99.90;;;;;;4997009;28;20021;-87
2022/12/13 05:16:58;;;;;;;31.13;15.50;;;-1.80;99.90;;;;;;5018956;28;20038;-87
2022/12/13 05:19:24;;;;;;;33.33;16.55;;;-1.80;99.90;;;;;;4984225;28;20390;-87
2022/12/13 05:21:49;;;;;;;30.85;16.35;;;-1.80;99.90;;;;;;4985064;28;20060;-87
2022/12/13 05:24:15;;;;;;;29.63;15.68;;;-1.80;99.90;;;;;;5004223;28;20030;-87
2022/12/13 05:26:41;;;;;;;35.13;16.00;;;-1.80;99.90;;;;;;4981280;28;20042;-87
2022/12/13 05:29:07;;;;;;;32.20;17.20;;;-1.80;99.90;;;;;;4982871;28;20129;-87
2022/12/13 05:31:33;;;;;;;37.30;17.13;;;-1.90;99.90;;;;;;4998536;28;20066;-87
2022/12/13 05:33:58;;;;;;;35.65;16.48;;;-1.80;99.90;;;;;;4981014;28;20038;-87
2022/12/13 05:36:24;;;;;;;35.00;17.45;;;-1.80;99.90;;;;;;4981629;28;20042;-88
2022/12/13 05:38:51;;;;;;;36.28;16.85;;;-1.80;99.90;;;;;;4973623;28;20489;-88
2022/12/13 05:41:21;;;;;;;34.00;15.70;;;-1.90;99.90;;;;;;4981418;28;20550;-88
2022/12/13 05:43:46;;;;;;;36.08;18.40;;;-1.90;99.90;;;;;;4993638;28;20113;-87
2022/12/13 05:46:13;;;;;;;41.13;17.92;;;-1.90;99.90;;;;;;4997759;28;20112;-88
2022/12/13 05:48:39;;;;;;;34.55;16.92;;;-1.80;99.90;;;;;;4998010;28;20366;-88
2022/12/13 05:51:05;;;;;;;31.73;16.80;;;-1.80;99.90;;;;;;4980860;28;20121;-87
2022/12/13 05:53:30;;;;;;;38.60;16.85;;;-1.80;99.90;;;;;;4979305;28;20026;-87
2022/12/13 05:56:08;;;;;;;35.92;16.67;;;-1.80;99.90;;;;;;4999100;28;20038;-87
2022/12/13 05:58:33;;;;;;;37.85;16.98;;;-1.80;99.90;;;;;;5012167;28;20022;-87
2022/12/13 06:01:12;;;;;;;35.92;16.52;;;-1.80;99.90;;;;;;4995148;28;20098;-86
2022/12/13 06:03:39;;;;;;;36.28;17.38;;;-1.90;99.90;;;;;;4999856;28;20041;-86
2022/12/13 06:06:07;;;;;;;41.00;18.08;;;-1.90;99.90;;;;;;5014623;28;20022;-87
2022/12/13 06:08:36;;;;;;;40.03;17.73;;;-1.90;99.90;;;;;;5001633;28;20033;-86
2022/12/13 06:11:03;;;;;;;38.15;17.73;;;-1.90;99.90;;;;;;4992127;28;20068;-86
2022/12/13 06:13:29;;;;;;;39.70;17.88;;;-1.90;99.90;;;;;;5023522;28;20049;-86
2022/12/13 06:16:01;;;;;;;41.45;18.90;;;-1.90;99.90;;;;;;5014542;28;20037;-86
2022/12/13 06:18:26;;;;;;;38.92;16.30;;;-1.90;99.90;;;;;;5019045;28;20026;-87
2022/12/13 06:20:57;;;;;;;37.88;18.30;;;-1.90;99.90;;;;;;4985777;28;20030;-86
2022/12/13 06:23:23;;;;;;;36.65;18.30;;;-1.90;99.90;;;;;;4986635;28;20018;-86
2022/12/13 06:25:49;;;;;;;40.25;17.33;;;-1.90;99.90;;;;;;4986253;28;20030;-86
2022/12/13 06:28:15;;;;;;;36.55;16.73;;;-1.90;99.90;;;;;;4982034;28;20134;-87
2022/12/13 06:30:41;;;;;;;41.67;17.70;;;-2.00;99.90;;;;;;4978296;28;20026;-87
2022/12/13 06:33:07;;;;;;;37.95;17.30;;;-2.00;99.90;;;;;;4984308;28;20073;-86
2022/12/13 06:35:33;;;;;;;41.95;18.95;;;-2.00;99.90;;;;;;5005311;28;20437;-86
2022/12/13 06:37:58;;;;;;;36.67;16.83;;;-2.00;99.90;;;;;;4982992;28;20029;-87
2022/12/13 06:40:24;;;;;;;36.50;17.50;;;-2.00;99.90;;;;;;4999015;28;20382;-86
2022/12/13 06:42:50;;;;;;;38.45;17.50;;;-2.00;99.90;;;;;;5012547;28;20085;-87
2022/12/13 06:45:15;;;;;;;37.97;17.60;;;-2.00;99.90;;;;;;4983250;28;20127;-88
2022/12/13 06:47:41;;;;;;;34.75;17.40;;;-2.00;99.90;;;;;;4982687;28;20497;-87
2022/12/13 06:50:08;;;;;;;42.58;18.85;;;-2.00;99.90;;;;;;5010151;28;20038;-86
2022/12/13 06:52:34;;;;;;;42.53;18.33;;;-2.10;99.90;;;;;;5016516;28;20018;-86
2022/12/13 06:55:00;;;;;;;39.17;18.27;;;-2.10;99.90;;;;;;5000455;28;20498;-87
2022/12/13 06:57:28;;;;;;;41.38;18.98;;;-2.10;99.90;;;;;;4985604;28;20044;-87
2022/12/13 06:59:54;;;;;;;41.13;18.42;;;-2.10;99.90;;;;;;4968763;28;20060;-87
2022/12/13 07:02:19;;;;;;;40.65;20.10;;;-2.10;99.90;;;;;;4999172;28;20026;-87
2022/12/13 07:04:45;;;;;;;39.55;18.85;;;-2.10;99.90;;;;;;4984505;28;20040;-86
2022/12/13 07:07:12;;;;;;;41.92;18.20;;;-2.10;99.90;;;;;;5016134;28;20125;-86
2022/12/13 07:09:37;;;;;;;41.72;18.98;;;-2.10;99.90;;;;;;4970540;28;20041;-86
2022/12/13 07:12:06;;;;;;;38.97;18.33;;;-2.20;99.90;;;;;;5019407;28;20033;-87
2022/12/13 07:14:31;;;;;;;40.20;20.55;;;-2.20;99.90;;;;;;5005706;28;20053;-87
2022/12/13 07:16:58;;;;;;;40.78;18.60;;;-2.20;99.90;;;;;;4974095;28;20088;-86
2022/12/13 07:19:24;;;;;;;39.30;18.92;;;-2.20;99.90;;;;;;4999518;28;20022;-86
2022/12/13 07:21:49;;;;;;;36.20;17.75;;;-2.20;99.90;;;;;;4999999;28;20026;-86
2022/12/13 07:24:15;;;;;;;36.08;17.23;;;-2.20;99.90;;;;;;5004111;28;20438;-86
2022/12/13 07:26:41;;;;;;;37.88;17.42;;;-2.20;99.90;;;;;;5003609;28;20037;-86
2022/12/13 07:29:06;;;;;;;38.40;17.90;;;-2.20;99.90;;;;;;4968469;28;20057;-86
2022/12/13 07:31:35;;;;;;;38.58;18.75;;;-2.20;99.90;;;;;;5007849;28;20038;-86
2022/12/13 07:34:01;;;;;;;37.53;18.48;;;-2.30;99.90;;;;;;4982893;28;20044;-85
2022/12/13 07:36:26;;;;;;;35.83;17.80;;;-2.20;99.90;;;;;;4983052;28;20133;-87
2022/12/13 07:38:54;;;;;;;35.97;17.77;;;-2.20;99.90;;;;;;5012683;28;20040;-85
2022/12/13 07:41:20;;;;;;;39.15;19.45;;;-2.20;99.90;;;;;;4998997;28;20026;-86
2022/12/13 07:43:46;;;;;;;40.60;19.38;;;-2.20;99.90;;;;;;5002617;28;20041;-85
2022/12/13 07:46:12;;;;;;;41.92;20.55;;;-2.30;99.90;;;;;;5002303;28;20042;-85
2022/12/13 07:48:38;;;;;;;36.30;17.77;;;-2.30;99.90;;;;;;5005554;28;20121;-86
2022/12/13 07:51:07;;;;;;;34.92;18.73;;;-2.30;99.90;;;;;;4966746;28;20026;-86
2022/12/13 07:53:33;;;;;;;35.30;17.88;;;-2.30;99.90;;;;;;4997480;28;20065;-85
2022/12/13 07:56:08;;;;;;;39.38;18.35;;;-2.30;99.90;;;;;;5001616;28;20033;-87
2022/12/13 07:58:34;;;;;;;33.00;17.38;;;-2.20;99.90;;;;;;4997939;28;20513;-86
2022/12/13 08:01:07;;;;;;;40.78;18.92;;;-2.30;99.90;;;;;;5004693;28;20018;-86
2022/12/13 08:03:35;;;;;;;39.53;18.30;;;-2.20;99.90;;;;;;5017559;28;20428;-89
2022/12/13 08:06:01;;;;;;;37.63;18.92;;;-2.20;99.90;;;;;;5000308;28;20022;-87
2022/12/13 08:08:27;;;;;;;36.80;18.23;;;-2.30;99.90;;;;;;5008292;28;20038;-88
2022/12/13 08:10:53;;;;;;;34.85;17.33;;;-2.30;99.90;;;;;;5001251;28;20037;-88
2022/12/13 08:13:18;;;;;;;35.30;18.30;;;-2.20;99.90;;;;;;4980520;28;20133;-88
2022/12/13 08:15:44;;;;;;;41.83;19.55;;;-2.30;99.90;;;;;;4997398;28;20393;-87
2022/12/13 08:18:10;;;;;;;38.15;19.58;;;-2.30;99.90;;;;;;4982225;28;20073;-87
2022/12/13 08:20:36;;;;;;;35.38;17.27;;;-2.30;99.90;;;;;;4994088;28;20490;-87
2022/12/13 08:23:02;;;;;;;36.25;18.48;;;-2.20;99.90;;;;;;4997794;28;20026;-86
2022/12/13 08:25:28;;;;;;;36.22;18.15;;;-2.20;99.90;;;;;;4996447;28;20068;-87
2022/12/13 08:27:54;;;;;;;36.42;18.13;;;-2.20;99.90;;;;;;4995876;28;20026;-86
2022/12/13 08:30:20;;;;;;;38.03;19.58;;;-2.20;99.90;;;;;;4959281;28;20027;-85
2022/12/13 08:32:49;;;;;;;43.40;20.35;;;-2.20;99.90;;;;;;4981371;28;20712;-84
2022/12/13 08:35:15;;;;;;;38.72;18.83;;;-2.20;99.90;;;;;;4995838;28;20620;-87
2022/12/13 08:37:44;;;;;;;40.60;19.88;;;-2.20;99.90;;;;;;4977931;28;20137;-86
2022/12/13 08:40:10;;;;;;;44.03;19.73;;;-2.20;99.90;;;;;;4994174;28;20095;-87
2022/12/13 08:42:35;;;;;;;38.35;19.88;;;-2.10;99.90;;;;;;4961430;28;20475;-86
2022/12/13 08:45:01;;;;;;;43.85;20.73;;;-2.10;99.90;;;;;;4995253;28;20077;-85
2022/12/13 08:47:26;;;;;;;49.30;21.70;;;-2.10;99.90;;;;;;4977741;28;20030;-86
2022/12/13 08:50:00;;;;;;;44.90;22.63;;;-2.10;99.90;;;;;;4979369;28;20486;-86
2022/12/13 08:52:26;;;;;;;42.67;20.27;;;-2.10;99.90;;;;;;5012830;28;20125;-88
2022/12/13 08:54:52;;;;;;;39.72;20.80;;;-2.10;99.90;;;;;;4980530;28;20068;-85
2022/12/13 08:57:17;;;;;;;46.15;21.40;;;-2.00;99.90;;;;;;4963710;28;20544;-87
2022/12/13 08:59:43;;;;;;;43.75;20.33;;;-2.00;99.90;;;;;;4995678;28;20386;-86
2022/12/13 09:02:14;;;;;;;43.33;22.05;;;-2.00;99.90;;;;;;4978176;28;20038;-88
2022/12/13 09:04:41;;;;;;;42.95;19.90;;;-2.00;99.90;;;;;;4996913;28;20108;-88
2022/12/13 09:07:07;;;;;;;42.80;21.08;;;-1.90;99.90;;;;;;4995603;28;20041;-88
2022/12/13 09:09:32;;;;;;;47.35;21.67;;;-1.90;99.90;;;;;;4995386;28;20395;-88
2022/12/13 09:11:58;;;;;;;47.53;21.63;;;-1.90;99.90;;;;;;5000847;28;20089;-90
2022/12/13 09:14:24;;;;;;;45.78;21.33;;;-1.90;99.90;;;;;;5003632;28;20042;-90
2022/12/13 09:16:55;;;;;;;43.92;19.80;;;-1.80;99.90;;;;;;4996659;28;20034;-89
2022/12/13 09:19:20;;;;;;;41.63;21.45;;;-1.80;99.90;;;;;;4982037;28;20117;-89
2022/12/13 09:21:49;;;;;;;44.45;21.17;;;-1.80;99.90;;;;;;4980124;28;20058;-88
2022/12/13 09:24:14;;;;;;;46.90;23.13;;;-1.80;99.90;;;;;;4983935;28;20106;-89
2022/12/13 09:26:47;;;;;;;41.33;20.15;;;-1.70;99.90;;;;;;4982787;28;20061;-88
2022/12/13 09:29:15;;;;;;;47.42;24.40;;;-1.70;99.90;;;;;;4982605;28;20073;-88
2022/12/13 09:31:42;;;;;;;46.95;23.17;;;-1.70;99.90;;;;;;4988211;28;20027;-90
2022/12/13 09:34:13;;;;;;;54.47;23.95;;;-1.70;99.90;;;;;;5029827;28;20034;-89
2022/12/13 09:36:41;;;;;;;47.10;23.92;;;-1.60;99.90;;;;;;5012867;28;20010;-89
2022/12/13 09:39:10;;;;;;;47.30;23.45;;;-1.60;99.90;;;;;;4982148;28;20142;-90
2022/12/13 09:41:58;;;;;;;49.30;24.35;;;-1.60;99.90;;;;;;5002727;28;20038;-89
2022/12/13 09:44:28;;;;;;;50.80;22.95;;;-1.60;99.90;;;;;;4994571;28;20041;-90
2022/12/13 09:47:10;;;;;;;47.72;22.42;;;-1.50;99.90;;;;;;4998285;28;20030;-91
2022/12/13 09:49:43;;;;;;;50.92;24.55;;;-1.50;99.90;;;;;;4999542;28;20030;-91
2022/12/13 09:52:17;;;;;;;45.60;22.55;;;-1.50;99.90;;;;;;4996875;28;20054;-90
2022/12/13 09:55:00;;;;;;;49.70;23.67;;;-1.50;99.90;;;;;;4996724;28;20030;-93
2022/12/13 09:57:29;;;;;;;48.03;23.08;;;-1.40;99.90;;;;;;4996343;28;20058;-88
2022/12/13 09:59:55;;;;;;;47.88;23.73;;;-1.50;99.90;;;;;;4995569;28;20041;-90
2022/12/13 10:02:33;;;;;;;;;;;;;;;;;;;;;
2022/12/13 10:05:22;;;;;;;49.55;23.45;;;-1.40;99.90;;;;;;4998456;28;20550;-94
2022/12/13 10:07:52;;;;;;;51.15;23.98;;;-1.40;99.90;;;;;;4994134;28;20034;-93
2022/12/13 10:10:18;;;;;;;50.73;24.07;;;-1.30;99.90;;;;;;4997332;28;20023;-93
2022/12/13 10:12:56;;;;;;;45.92;23.27;;;-1.30;99.90;;;;;;4997233;28;20428;-92
2022/12/13 10:15:29;;;;;;;45.25;23.77;;;-1.20;99.90;;;;;;4995119;28;20463;-93
2022/12/13 10:18:15;;;;;;;;;;;;;;;;;;;;;
2022/12/13 10:20:43;;;;;;;45.45;24.15;;;-1.20;99.90;;;;;;4996330;28;20113;-91
2022/12/13 10:23:16;;;;;;;45.05;23.67;;;-1.20;99.90;;;;;;5000762;28;20031;-93
2022/12/13 10:26:06;;;;;;;51.70;24.67;;;-1.20;99.90;;;;;;4966528;28;20473;-89
2022/12/13 10:28:43;;;;;;;49.17;24.05;;;-1.10;99.90;;;;;;4997332;28;20034;-87
2022/12/13 10:31:18;;;;;;;45.90;24.25;;;-1.10;99.90;;;;;;5003407;28;20022;-89
2022/12/13 10:33:55;;;;;;;47.28;23.63;;;-1.10;99.90;;;;;;4999168;28;20106;-88
2022/12/13 10:36:37;;;;;;;48.92;25.13;;;-1.10;99.90;;;;;;4995697;28;20115;-90
2022/12/13 10:39:05;;;;;;;45.83;23.27;;;-1.10;99.90;;;;;;4994944;28;20081;-89
2022/12/13 10:41:35;;;;;;;50.90;24.38;;;-1.10;99.90;;;;;;4992271;28;20527;-89
2022/12/13 10:44:24;;;;;;;47.85;24.00;;;-1.10;99.90;;;;;;4995770;28;20085;-88
2022/12/13 10:46:52;;;;;;;50.33;25.10;;;-1.10;99.90;;;;;;4994060;28;20096;-88
2022/12/13 10:49:28;;;;;;;48.53;24.17;;;-1.10;99.90;;;;;;4996591;28;20038;-88
2022/12/13 10:52:15;;;;;;;52.72;27.08;;;-1.10;99.90;;;;;;4994665;28;20033;-89
2022/12/13 10:54:43;;;;;;;50.17;25.92;;;-1.00;99.90;;;;;;4998643;28;20130;-90
2022/12/13 10:57:13;;;;;;;49.03;25.60;;;-1.00;99.90;;;;;;4997751;28;20026;-88
2022/12/13 10:59:39;;;;;;;47.05;25.00;;;-1.00;99.90;;;;;;5016298;28;20054;-89
2022/12/13 11:02:37;;;;;;;48.63;26.08;;;-1.00;99.90;;;;;;4983003;28;20081;-90
2022/12/13 11:05:25;;;;;;;50.22;24.88;;;-1.00;99.90;;;;;;4995576;28;20018;-91
2022/12/13 11:07:54;;;;;;;45.72;23.10;;;-0.90;99.90;;;;;;4993107;28;20493;-91
2022/12/13 11:10:25;;;;;;;42.58;23.10;;;-0.90;99.90;;;;;;4998426;28;20019;-87
2022/12/13 11:12:59;;;;;;;50.30;25.23;;;-0.80;99.90;;;;;;5009159;28;20053;-88
2022/12/13 11:15:29;;;;;;;40.65;21.70;;;-0.80;99.90;;;;;;5001170;28;20026;-88
2022/12/13 11:18:02;;;;;;;47.83;24.67;;;-0.80;99.90;;;;;;5001073;28;20053;-87
2022/12/13 11:20:34;;;;;;;44.45;21.92;;;-0.80;99.90;;;;;;5018131;28;20040;-88
2022/12/13 11:23:03;;;;;;;48.88;22.45;;;-0.70;99.90;;;;;;5013231;28;20048;-87
2022/12/13 11:25:40;;;;;;;46.10;21.52;;;-0.70;99.90;;;;;;5018819;28;20026;-89
2022/12/13 11:28:22;;;;;;;42.55;22.45;;;-0.60;99.90;;;;;;5003450;28;20026;-87
2022/12/13 11:31:18;;;;;;;41.13;20.88;;;-0.60;99.90;;;;;;4999577;28;20030;-87
2022/12/13 11:33:55;;;;;;;40.50;20.67;;;-0.60;99.90;;;;;;5015376;28;20026;-89
2022/12/13 11:36:37;;;;;;;44.03;21.52;;;-0.60;99.90;;;;;;5018120;28;20545;-89
2022/12/13 11:39:42;;;;;;;44.28;22.25;;;-0.60;99.90;;;;;;4999631;28;20092;-88
2022/12/13 11:42:18;;;;;;;40.78;20.90;;;-0.60;99.90;;;;;;4972624;28;20038;-89
2022/12/13 11:45:11;;;;;;;40.65;21.52;;;-0.60;99.90;;;;;;5016035;28;20045;-88
2022/12/13 11:47:44;;;;;;;47.28;23.13;;;-0.50;99.90;;;;;;5015186;28;20026;-87
2022/12/13 11:50:27;;;;;;;45.65;23.98;;;-0.50;99.90;;;;;;5018722;28;20018;-90
2022/12/13 11:52:57;;;;;;;45.95;23.15;;;-0.50;99.90;;;;;;5002023;28;20038;-87
2022/12/13 11:55:32;;;;;;;47.20;23.92;;;-0.40;99.90;;;;;;5037847;28;20045;-87
2022/12/13 11:58:00;;;;;;;45.42;24.33;;;-0.40;99.90;;;;;;5033856;28;20025;-87
2022/12/13 12:00:40;;;;;;;49.45;24.50;;;-0.40;99.90;;;;;;5009023;28;20026;-87
2022/12/13 12:03:33;;;;;;;43.50;21.67;;;-0.40;99.90;;;;;;5013829;28;20068;-87
2022/12/13 12:06:16;;;;;;;42.17;23.40;;;-0.30;99.90;;;;;;5013433;28;20046;-90
2022/12/13 12:08:55;;;;;;;45.85;22.65;;;-0.30;99.90;;;;;;4997697;28;20022;-89
2022/12/13 12:11:50;;;;;;;46.17;23.25;;;-0.30;99.90;;;;;;5017708;28;20030;-89
2022/12/13 12:14:32;;;;;;;41.05;22.27;;;-0.30;99.90;;;;;;4996102;28;20030;-86
2022/12/13 12:16:58;;;;;;;42.95;22.17;;;-0.30;99.90;;;;;;4991899;28;20027;-87
2022/12/13 12:19:38;;;;;;;44.20;23.38;;;-0.20;99.90;;;;;;5010937;28;20023;-87
2022/12/13 12:22:41;;;;;;;47.13;22.70;;;-0.20;99.90;;;;;;4994234;28;20073;-88
2022/12/13 12:25:28;;;;;;;42.80;23.00;;;-0.20;99.90;;;;;;5009363;28;20280;-88
2022/12/13 12:28:24;;;;;;;42.97;22.05;;;-0.10;99.90;;;;;;5005628;28;20118;-89
2022/12/13 12:31:12;;;;;;;43.80;23.40;;;-0.10;99.90;;;;;;4994187;28;20031;-89
2022/12/13 12:34:12;;;;;;;42.75;21.92;;;-0.10;99.90;;;;;;5008320;28;20031;-88
2022/12/13 12:37:10;;;;;;;39.75;21.23;;;-0.10;99.90;;;;;;5009200;28;20033;-88
2022/12/13 12:39:43;;;;;;;42.75;22.05;;;0.00;99.90;;;;;;5008215;28;20031;-87
2022/12/13 12:42:18;;;;;;;41.85;20.73;;;-0.10;99.90;;;;;;5012172;28;20030;-87
2022/12/13 12:44:49;;;;;;;40.20;21.35;;;-0.10;99.90;;;;;;4999560;28;20038;-87
2022/12/13 12:48:15;;;;;;;;;;;;;;;;;;;;;
2022/12/13 12:51:20;;;;;;;41.38;20.40;;;0.00;99.90;;;;;;4994360;28;20432;-87
2022/12/13 12:54:17;;;;;;;39.22;21.15;;;0.00;99.90;;;;;;4995000;28;20034;-88